sensor_id;sensor_type;location;lat;lon;timestamp;P1;durP1;ratioP1;P2;durP2;ratioP2
61473;SDS011;53694;49.784;30.150;2023-03-19T00:00:39;19.47;;;11.72;;
61473;SDS011;53694;49.784;30.150;2023-03-19T00:01:41;20.98;;;11.60;;
61473;SDS011;53694;49.784;30.150;2023-03-19T00:02:42;17.93;;;10.49;;
61473;SDS011;53694;49.784;30.150;2023-03-19T00:03:44;17.23;;;10.82;;
61473;SDS011;53694;49.784;30.150;2023-03-19T00:04:45;19.41;;;11.86;;
61473;SDS011;53694;49.784;30.150;2023-03-19T00:05:51;16.42;;;10.65;;
61473;SDS011;53694;49.784;30.150;2023-03-19T00:06:53;22.04;;;12.08;;
61473;SDS011;53694;49.784;30.150;2023-03-19T00:07:55;19.79;;;10.52;;
61473;SDS011;53694;49.784;30.150;2023-03-19T00:08:56;18.10;;;9.91;;
61473;SDS011;53694;49.784;30.150;2023-03-19T00:09:58;15.56;;;9.11;;
61473;SDS011;53694;49.784;30.150;2023-03-19T00:11:04;16.65;;;9.13;;
61473;SDS011;53694;49.784;30.150;2023-03-19T00:12:09;18.29;;;9.84;;
61473;SDS011;53694;49.784;30.150;2023-03-19T00:13:11;15.90;;;8.79;;
61473;SDS011;53694;49.784;30.150;2023-03-19T00:14:13;15.92;;;9.61;;
61473;SDS011;53694;49.784;30.150;2023-03-19T00:15:15;19.49;;;10.63;;
61473;SDS011;53694;49.784;30.150;2023-03-19T00:16:17;18.89;;;10.15;;
61473;SDS011;53694;49.784;30.150;2023-03-19T00:17:18;17.89;;;10.02;;
61473;SDS011;53694;49.784;30.150;2023-03-19T00:18:20;18.81;;;10.34;;
61473;SDS011;53694;49.784;30.150;2023-03-19T00:19:21;21.96;;;12.48;;
61473;SDS011;53694;49.784;30.150;2023-03-19T00:20:23;20.85;;;11.94;;
61473;SDS011;53694;49.784;30.150;2023-03-19T00:21:24;20.11;;;10.57;;
61473;SDS011;53694;49.784;30.150;2023-03-19T00:22:26;20.96;;;11.80;;
61473;SDS011;53694;49.784;30.150;2023-03-19T00:23:28;24.96;;;13.58;;
61473;SDS011;53694;49.784;30.150;2023-03-19T00:24:29;25.77;;;13.29;;
61473;SDS011;53694;49.784;30.150;2023-03-19T00:25:31;25.39;;;15.01;;
61473;SDS011;53694;49.784;30.150;2023-03-19T00:26:33;30.77;;;15.86;;
61473;SDS011;53694;49.784;30.150;2023-03-19T00:27:35;30.01;;;16.23;;
61473;SDS011;53694;49.784;30.150;2023-03-19T00:28:38;33.20;;;17.44;;
61473;SDS011;53694;49.784;30.150;2023-03-19T00:29:39;32.69;;;17.76;;
61473;SDS011;53694;49.784;30.150;2023-03-19T00:30:41;32.34;;;17.91;;
61473;SDS011;53694;49.784;30.150;2023-03-19T00:31:42;32.75;;;17.66;;
61473;SDS011;53694;49.784;30.150;2023-03-19T00:32:44;29.44;;;16.42;;
61473;SDS011;53694;49.784;30.150;2023-03-19T00:33:45;28.43;;;14.54;;
61473;SDS011;53694;49.784;30.150;2023-03-19T00:34:47;25.69;;;13.96;;
61473;SDS011;53694;49.784;30.150;2023-03-19T00:35:48;26.55;;;13.13;;
61473;SDS011;53694;49.784;30.150;2023-03-19T00:36:51;23.07;;;12.71;;
61473;SDS011;53694;49.784;30.150;2023-03-19T00:37:53;18.34;;;10.41;;
61473;SDS011;53694;49.784;30.150;2023-03-19T00:38:54;19.15;;;10.45;;
61473;SDS011;53694;49.784;30.150;2023-03-19T00:39:56;18.14;;;10.57;;
61473;SDS011;53694;49.784;30.150;2023-03-19T00:40:58;17.71;;;10.06;;
61473;SDS011;53694;49.784;30.150;2023-03-19T00:41:59;17.94;;;9.98;;
61473;SDS011;53694;49.784;30.150;2023-03-19T00:43:01;19.07;;;11.14;;
61473;SDS011;53694;49.784;30.150;2023-03-19T00:44:03;15.30;;;10.55;;
61473;SDS011;53694;49.784;30.150;2023-03-19T00:45:05;17.54;;;10.33;;
61473;SDS011;53694;49.784;30.150;2023-03-19T00:46:07;18.50;;;11.41;;
61473;SDS011;53694;49.784;30.150;2023-03-19T00:47:09;20.84;;;12.48;;
61473;SDS011;53694;49.784;30.150;2023-03-19T00:48:10;21.53;;;11.86;;
61473;SDS011;53694;49.784;30.150;2023-03-19T00:49:12;21.24;;;12.52;;
61473;SDS011;53694;49.784;30.150;2023-03-19T00:50:14;28.15;;;17.26;;
61473;SDS011;53694;49.784;30.150;2023-03-19T00:51:15;22.79;;;14.11;;
61473;SDS011;53694;49.784;30.150;2023-03-19T00:52:17;24.67;;;15.22;;
61473;SDS011;53694;49.784;30.150;2023-03-19T00:53:18;24.58;;;15.03;;
61473;SDS011;53694;49.784;30.150;2023-03-19T00:54:20;27.67;;;15.35;;
61473;SDS011;53694;49.784;30.150;2023-03-19T00:55:22;23.60;;;13.50;;
61473;SDS011;53694;49.784;30.150;2023-03-19T00:56:23;19.39;;;11.58;;
61473;SDS011;53694;49.784;30.150;2023-03-19T00:57:25;20.80;;;10.34;;
61473;SDS011;53694;49.784;30.150;2023-03-19T00:58:26;16.81;;;10.52;;
61473;SDS011;53694;49.784;30.150;2023-03-19T00:59:28;16.61;;;10.11;;
61473;SDS011;53694;49.784;30.150;2023-03-19T01:00:30;15.51;;;9.61;;
61473;SDS011;53694;49.784;30.150;2023-03-19T01:01:31;16.00;;;9.51;;
61473;SDS011;53694;49.784;30.150;2023-03-19T01:02:33;18.41;;;10.11;;
61473;SDS011;53694;49.784;30.150;2023-03-19T01:03:34;20.04;;;10.40;;
61473;SDS011;53694;49.784;30.150;2023-03-19T01:04:36;17.28;;;9.87;;
61473;SDS011;53694;49.784;30.150;2023-03-19T01:05:38;18.94;;;11.59;;
61473;SDS011;53694;49.784;30.150;2023-03-19T01:06:40;16.82;;;10.63;;
61473;SDS011;53694;49.784;30.150;2023-03-19T01:07:42;25.40;;;15.63;;
61473;SDS011;53694;49.784;30.150;2023-03-19T01:08:43;25.15;;;15.83;;
61473;SDS011;53694;49.784;30.150;2023-03-19T01:09:45;29.56;;;18.21;;
61473;SDS011;53694;49.784;30.150;2023-03-19T01:10:46;39.29;;;24.39;;
61473;SDS011;53694;49.784;30.150;2023-03-19T01:11:48;44.32;;;28.45;;
61473;SDS011;53694;49.784;30.150;2023-03-19T01:12:50;42.54;;;25.70;;
61473;SDS011;53694;49.784;30.150;2023-03-19T01:13:51;36.67;;;21.55;;
61473;SDS011;53694;49.784;30.150;2023-03-19T01:14:53;39.18;;;22.58;;
61473;SDS011;53694;49.784;30.150;2023-03-19T01:15:55;38.63;;;22.30;;
61473;SDS011;53694;49.784;30.150;2023-03-19T01:16:56;40.04;;;22.64;;
61473;SDS011;53694;49.784;30.150;2023-03-19T01:17:58;31.77;;;19.59;;
61473;SDS011;53694;49.784;30.150;2023-03-19T01:19:00;32.86;;;19.22;;
61473;SDS011;53694;49.784;30.150;2023-03-19T01:20:03;35.54;;;19.69;;
61473;SDS011;53694;49.784;30.150;2023-03-19T01:21:06;25.28;;;15.46;;
61473;SDS011;53694;49.784;30.150;2023-03-19T01:22:07;26.24;;;15.69;;
61473;SDS011;53694;49.784;30.150;2023-03-19T01:23:09;28.11;;;15.81;;
61473;SDS011;53694;49.784;30.150;2023-03-19T01:24:11;19.92;;;11.15;;
61473;SDS011;53694;49.784;30.150;2023-03-19T01:25:13;18.56;;;10.97;;
61473;SDS011;53694;49.784;30.150;2023-03-19T01:26:15;17.62;;;10.74;;
61473;SDS011;53694;49.784;30.150;2023-03-19T01:27:16;16.76;;;9.66;;
61473;SDS011;53694;49.784;30.150;2023-03-19T01:28:18;18.35;;;10.09;;
61473;SDS011;53694;49.784;30.150;2023-03-19T01:29:20;16.70;;;10.75;;
61473;SDS011;53694;49.784;30.150;2023-03-19T01:30:21;17.19;;;11.21;;
61473;SDS011;53694;49.784;30.150;2023-03-19T01:31:23;18.85;;;11.69;;
61473;SDS011;53694;49.784;30.150;2023-03-19T01:32:24;18.26;;;11.92;;
61473;SDS011;53694;49.784;30.150;2023-03-19T01:33:26;19.94;;;12.87;;
61473;SDS011;53694;49.784;30.150;2023-03-19T01:34:28;18.08;;;11.99;;
61473;SDS011;53694;49.784;30.150;2023-03-19T01:35:29;21.18;;;12.86;;
61473;SDS011;53694;49.784;30.150;2023-03-19T01:36:31;22.07;;;12.96;;
61473;SDS011;53694;49.784;30.150;2023-03-19T01:37:33;22.91;;;12.52;;
61473;SDS011;53694;49.784;30.150;2023-03-19T01:38:34;20.39;;;13.24;;
61473;SDS011;53694;49.784;30.150;2023-03-19T01:39:36;22.27;;;13.98;;
61473;SDS011;53694;49.784;30.150;2023-03-19T01:40:42;20.64;;;12.24;;
61473;SDS011;53694;49.784;30.150;2023-03-19T01:41:45;17.66;;;10.46;;
61473;SDS011;53694;49.784;30.150;2023-03-19T01:44:30;22.58;;;11.81;;
61473;SDS011;53694;49.784;30.150;2023-03-19T01:45:37;18.01;;;9.83;;
61473;SDS011;53694;49.784;30.150;2023-03-19T01:46:39;21.61;;;10.69;;
61473;SDS011;53694;49.784;30.150;2023-03-19T01:47:41;18.53;;;10.23;;
61473;SDS011;53694;49.784;30.150;2023-03-19T01:48:47;18.90;;;10.16;;
61473;SDS011;53694;49.784;30.150;2023-03-19T01:49:52;18.94;;;10.33;;
61473;SDS011;53694;49.784;30.150;2023-03-19T01:50:56;18.93;;;10.77;;
61473;SDS011;53694;49.784;30.150;2023-03-19T01:51:58;17.24;;;10.79;;
61473;SDS011;53694;49.784;30.150;2023-03-19T01:53:02;20.27;;;11.78;;
61473;SDS011;53694;49.784;30.150;2023-03-19T01:54:05;21.69;;;12.37;;
61473;SDS011;53694;49.784;30.150;2023-03-19T01:55:09;21.36;;;11.95;;
61473;SDS011;53694;49.784;30.150;2023-03-19T01:56:13;19.70;;;11.52;;
61473;SDS011;53694;49.784;30.150;2023-03-19T01:57:16;21.47;;;12.82;;
61473;SDS011;53694;49.784;30.150;2023-03-19T01:58:19;20.54;;;12.51;;
61473;SDS011;53694;49.784;30.150;2023-03-19T01:59:24;21.97;;;13.15;;
61473;SDS011;53694;49.784;30.150;2023-03-19T02:00:27;22.20;;;12.32;;
61473;SDS011;53694;49.784;30.150;2023-03-19T02:01:31;21.19;;;13.64;;
61473;SDS011;53694;49.784;30.150;2023-03-19T02:02:35;22.18;;;12.44;;
61473;SDS011;53694;49.784;30.150;2023-03-19T02:03:38;20.49;;;11.90;;
61473;SDS011;53694;49.784;30.150;2023-03-19T02:04:40;16.57;;;10.10;;
61473;SDS011;53694;49.784;30.150;2023-03-19T02:05:45;17.26;;;10.10;;
61473;SDS011;53694;49.784;30.150;2023-03-19T02:06:49;17.18;;;10.43;;
61473;SDS011;53694;49.784;30.150;2023-03-19T02:07:51;18.15;;;10.21;;
61473;SDS011;53694;49.784;30.150;2023-03-19T02:09:02;22.26;;;13.72;;
61473;SDS011;53694;49.784;30.150;2023-03-19T02:10:05;18.40;;;10.36;;
61473;SDS011;53694;49.784;30.150;2023-03-19T02:11:09;17.54;;;10.99;;
61473;SDS011;53694;49.784;30.150;2023-03-19T02:12:11;18.34;;;9.37;;
61473;SDS011;53694;49.784;30.150;2023-03-19T02:13:13;16.50;;;9.70;;
61473;SDS011;53694;49.784;30.150;2023-03-19T02:14:15;18.79;;;10.82;;
61473;SDS011;53694;49.784;30.150;2023-03-19T02:15:17;17.92;;;11.68;;
61473;SDS011;53694;49.784;30.150;2023-03-19T02:16:19;17.56;;;10.82;;
61473;SDS011;53694;49.784;30.150;2023-03-19T02:17:20;20.62;;;11.87;;
61473;SDS011;53694;49.784;30.150;2023-03-19T02:18:23;21.21;;;12.60;;
61473;SDS011;53694;49.784;30.150;2023-03-19T02:19:34;22.95;;;13.01;;
61473;SDS011;53694;49.784;30.150;2023-03-19T02:21:05;23.09;;;13.18;;
61473;SDS011;53694;49.784;30.150;2023-03-19T02:22:09;20.97;;;12.97;;
61473;SDS011;53694;49.784;30.150;2023-03-19T02:23:14;21.23;;;12.59;;
61473;SDS011;53694;49.784;30.150;2023-03-19T02:24:40;22.51;;;14.12;;
61473;SDS011;53694;49.784;30.150;2023-03-19T02:27:07;21.00;;;11.92;;
61473;SDS011;53694;49.784;30.150;2023-03-19T02:28:09;17.99;;;10.35;;
61473;SDS011;53694;49.784;30.150;2023-03-19T02:29:11;16.89;;;9.87;;
61473;SDS011;53694;49.784;30.150;2023-03-19T02:30:17;18.42;;;9.78;;
61473;SDS011;53694;49.784;30.150;2023-03-19T02:31:21;15.98;;;8.47;;
61473;SDS011;53694;49.784;30.150;2023-03-19T02:32:23;16.01;;;8.89;;
61473;SDS011;53694;49.784;30.150;2023-03-19T02:33:25;15.81;;;9.31;;
61473;SDS011;53694;49.784;30.150;2023-03-19T02:35:34;14.43;;;8.22;;
61473;SDS011;53694;49.784;30.150;2023-03-19T02:36:38;15.91;;;8.11;;
61473;SDS011;53694;49.784;30.150;2023-03-19T02:37:42;12.67;;;8.18;;
61473;SDS011;53694;49.784;30.150;2023-03-19T02:38:44;15.41;;;9.16;;
61473;SDS011;53694;49.784;30.150;2023-03-19T02:39:53;15.32;;;8.91;;
61473;SDS011;53694;49.784;30.150;2023-03-19T02:41:02;19.25;;;10.19;;
61473;SDS011;53694;49.784;30.150;2023-03-19T02:42:06;16.38;;;9.63;;
61473;SDS011;53694;49.784;30.150;2023-03-19T02:43:10;15.65;;;9.94;;
61473;SDS011;53694;49.784;30.150;2023-03-19T02:44:11;15.70;;;10.21;;
61473;SDS011;53694;49.784;30.150;2023-03-19T02:45:13;17.08;;;10.31;;
61473;SDS011;53694;49.784;30.150;2023-03-19T02:46:15;17.09;;;10.36;;
61473;SDS011;53694;49.784;30.150;2023-03-19T02:47:17;17.17;;;10.66;;
61473;SDS011;53694;49.784;30.150;2023-03-19T02:48:19;16.21;;;10.45;;
61473;SDS011;53694;49.784;30.150;2023-03-19T02:49:20;17.58;;;9.76;;
61473;SDS011;53694;49.784;30.150;2023-03-19T02:50:22;14.52;;;9.05;;
61473;SDS011;53694;49.784;30.150;2023-03-19T02:51:24;13.85;;;8.44;;
61473;SDS011;53694;49.784;30.150;2023-03-19T02:52:25;14.89;;;8.35;;
61473;SDS011;53694;49.784;30.150;2023-03-19T02:53:27;13.96;;;7.49;;
61473;SDS011;53694;49.784;30.150;2023-03-19T02:54:28;13.29;;;8.04;;
61473;SDS011;53694;49.784;30.150;2023-03-19T02:55:30;11.81;;;7.81;;
61473;SDS011;53694;49.784;30.150;2023-03-19T02:56:31;14.25;;;8.16;;
61473;SDS011;53694;49.784;30.150;2023-03-19T02:57:33;14.73;;;7.99;;
61473;SDS011;53694;49.784;30.150;2023-03-19T02:58:35;13.88;;;7.94;;
61473;SDS011;53694;49.784;30.150;2023-03-19T02:59:36;14.55;;;9.06;;
61473;SDS011;53694;49.784;30.150;2023-03-19T03:00:39;13.27;;;8.47;;
61473;SDS011;53694;49.784;30.150;2023-03-19T03:01:41;15.98;;;9.10;;
61473;SDS011;53694;49.784;30.150;2023-03-19T03:02:43;14.51;;;9.20;;
61473;SDS011;53694;49.784;30.150;2023-03-19T03:03:45;15.02;;;9.47;;
61473;SDS011;53694;49.784;30.150;2023-03-19T03:04:47;16.16;;;9.99;;
61473;SDS011;53694;49.784;30.150;2023-03-19T03:05:48;14.71;;;9.79;;
61473;SDS011;53694;49.784;30.150;2023-03-19T03:06:50;15.91;;;10.86;;
61473;SDS011;53694;49.784;30.150;2023-03-19T03:07:52;18.46;;;11.31;;
61473;SDS011;53694;49.784;30.150;2023-03-19T03:08:53;18.01;;;10.95;;
61473;SDS011;53694;49.784;30.150;2023-03-19T03:09:55;15.54;;;10.64;;
61473;SDS011;53694;49.784;30.150;2023-03-19T03:10:56;21.11;;;11.42;;
61473;SDS011;53694;49.784;30.150;2023-03-19T03:11:58;16.22;;;10.36;;
61473;SDS011;53694;49.784;30.150;2023-03-19T03:12:59;14.77;;;9.01;;
61473;SDS011;53694;49.784;30.150;2023-03-19T03:14:01;14.52;;;8.89;;
61473;SDS011;53694;49.784;30.150;2023-03-19T03:15:04;14.39;;;8.18;;
61473;SDS011;53694;49.784;30.150;2023-03-19T03:16:07;13.39;;;7.74;;
61473;SDS011;53694;49.784;30.150;2023-03-19T03:17:08;13.49;;;7.75;;
61473;SDS011;53694;49.784;30.150;2023-03-19T03:18:10;13.74;;;8.48;;
61473;SDS011;53694;49.784;30.150;2023-03-19T03:19:12;13.47;;;7.96;;
61473;SDS011;53694;49.784;30.150;2023-03-19T03:20:14;13.12;;;8.03;;
61473;SDS011;53694;49.784;30.150;2023-03-19T03:21:16;15.39;;;8.25;;
61473;SDS011;53694;49.784;30.150;2023-03-19T03:22:17;15.86;;;9.19;;
61473;SDS011;53694;49.784;30.150;2023-03-19T03:23:19;15.35;;;9.09;;
61473;SDS011;53694;49.784;30.150;2023-03-19T03:24:21;14.93;;;8.62;;
61473;SDS011;53694;49.784;30.150;2023-03-19T03:25:22;14.21;;;9.46;;
61473;SDS011;53694;49.784;30.150;2023-03-19T03:26:24;16.04;;;9.41;;
61473;SDS011;53694;49.784;30.150;2023-03-19T03:27:26;16.89;;;10.30;;
61473;SDS011;53694;49.784;30.150;2023-03-19T03:28:27;16.41;;;10.62;;
61473;SDS011;53694;49.784;30.150;2023-03-19T03:29:29;20.53;;;10.70;;
61473;SDS011;53694;49.784;30.150;2023-03-19T03:30:30;18.17;;;11.19;;
61473;SDS011;53694;49.784;30.150;2023-03-19T03:31:32;17.70;;;10.91;;
61473;SDS011;53694;49.784;30.150;2023-03-19T03:32:34;18.21;;;11.15;;
61473;SDS011;53694;49.784;30.150;2023-03-19T03:33:36;16.94;;;11.75;;
61473;SDS011;53694;49.784;30.150;2023-03-19T03:34:37;16.45;;;9.81;;
61473;SDS011;53694;49.784;30.150;2023-03-19T03:35:39;14.06;;;8.79;;
61473;SDS011;53694;49.784;30.150;2023-03-19T03:36:40;16.50;;;9.13;;
61473;SDS011;53694;49.784;30.150;2023-03-19T03:37:42;15.43;;;8.85;;
61473;SDS011;53694;49.784;30.150;2023-03-19T03:38:44;11.70;;;7.69;;
61473;SDS011;53694;49.784;30.150;2023-03-19T03:39:46;14.37;;;8.55;;
61473;SDS011;53694;49.784;30.150;2023-03-19T03:40:51;16.77;;;8.28;;
61473;SDS011;53694;49.784;30.150;2023-03-19T03:41:53;14.31;;;8.10;;
61473;SDS011;53694;49.784;30.150;2023-03-19T03:42:54;16.01;;;8.24;;
61473;SDS011;53694;49.784;30.150;2023-03-19T03:43:56;15.19;;;7.84;;
61473;SDS011;53694;49.784;30.150;2023-03-19T03:44:57;14.89;;;9.15;;
61473;SDS011;53694;49.784;30.150;2023-03-19T03:45:59;15.63;;;9.05;;
61473;SDS011;53694;49.784;30.150;2023-03-19T03:47:00;16.19;;;9.00;;
61473;SDS011;53694;49.784;30.150;2023-03-19T03:48:02;15.05;;;9.56;;
61473;SDS011;53694;49.784;30.150;2023-03-19T03:49:04;15.89;;;9.50;;
61473;SDS011;53694;49.784;30.150;2023-03-19T03:50:06;18.75;;;10.21;;
61473;SDS011;53694;49.784;30.150;2023-03-19T03:51:08;15.54;;;9.58;;
61473;SDS011;53694;49.784;30.150;2023-03-19T03:52:11;13.88;;;9.20;;
61473;SDS011;53694;49.784;30.150;2023-03-19T03:53:13;17.04;;;10.37;;
61473;SDS011;53694;49.784;30.150;2023-03-19T03:54:14;17.83;;;11.00;;
61473;SDS011;53694;49.784;30.150;2023-03-19T03:55:16;17.27;;;10.75;;
61473;SDS011;53694;49.784;30.150;2023-03-19T03:56:18;19.01;;;12.41;;
61473;SDS011;53694;49.784;30.150;2023-03-19T03:57:19;20.96;;;13.39;;
61473;SDS011;53694;49.784;30.150;2023-03-19T03:58:21;18.96;;;11.46;;
61473;SDS011;53694;49.784;30.150;2023-03-19T03:59:22;18.03;;;10.64;;
61473;SDS011;53694;49.784;30.150;2023-03-19T04:00:24;16.21;;;9.67;;
61473;SDS011;53694;49.784;30.150;2023-03-19T04:01:26;16.20;;;9.17;;
61473;SDS011;53694;49.784;30.150;2023-03-19T04:02:27;14.84;;;9.28;;
61473;SDS011;53694;49.784;30.150;2023-03-19T04:03:29;14.81;;;8.31;;
61473;SDS011;53694;49.784;30.150;2023-03-19T04:04:30;13.91;;;8.16;;
61473;SDS011;53694;49.784;30.150;2023-03-19T04:05:32;13.21;;;7.94;;
61473;SDS011;53694;49.784;30.150;2023-03-19T04:06:33;12.58;;;8.49;;
61473;SDS011;53694;49.784;30.150;2023-03-19T04:07:35;13.19;;;8.61;;
61473;SDS011;53694;49.784;30.150;2023-03-19T04:08:37;14.95;;;9.19;;
61473;SDS011;53694;49.784;30.150;2023-03-19T04:09:39;13.96;;;9.09;;
61473;SDS011;53694;49.784;30.150;2023-03-19T04:10:40;16.39;;;9.88;;
61473;SDS011;53694;49.784;30.150;2023-03-19T04:11:42;15.32;;;9.86;;
61473;SDS011;53694;49.784;30.150;2023-03-19T04:12:44;16.21;;;10.45;;
61473;SDS011;53694;49.784;30.150;2023-03-19T04:13:45;16.19;;;10.33;;
61473;SDS011;53694;49.784;30.150;2023-03-19T04:14:47;16.99;;;11.20;;
61473;SDS011;53694;49.784;30.150;2023-03-19T04:15:49;16.68;;;11.03;;
61473;SDS011;53694;49.784;30.150;2023-03-19T04:16:50;16.44;;;10.54;;
61473;SDS011;53694;49.784;30.150;2023-03-19T04:17:52;18.76;;;11.08;;
61473;SDS011;53694;49.784;30.150;2023-03-19T04:18:53;16.66;;;11.52;;
61473;SDS011;53694;49.784;30.150;2023-03-19T04:19:55;19.57;;;11.81;;
61473;SDS011;53694;49.784;30.150;2023-03-19T04:20:56;17.21;;;10.83;;
61473;SDS011;53694;49.784;30.150;2023-03-19T04:21:58;17.49;;;9.75;;
61473;SDS011;53694;49.784;30.150;2023-03-19T04:22:59;14.22;;;8.87;;
61473;SDS011;53694;49.784;30.150;2023-03-19T04:24:01;17.00;;;9.75;;
61473;SDS011;53694;49.784;30.150;2023-03-19T04:25:03;14.89;;;8.11;;
61473;SDS011;53694;49.784;30.150;2023-03-19T04:26:05;16.87;;;8.72;;
61473;SDS011;53694;49.784;30.150;2023-03-19T04:27:07;14.23;;;7.94;;
61473;SDS011;53694;49.784;30.150;2023-03-19T04:28:08;12.66;;;8.06;;
61473;SDS011;53694;49.784;30.150;2023-03-19T04:29:10;12.51;;;7.61;;
61473;SDS011;53694;49.784;30.150;2023-03-19T04:30:13;12.86;;;7.33;;
61473;SDS011;53694;49.784;30.150;2023-03-19T04:31:15;13.98;;;7.80;;
61473;SDS011;53694;49.784;30.150;2023-03-19T04:32:16;13.77;;;8.22;;
61473;SDS011;53694;49.784;30.150;2023-03-19T04:33:18;13.72;;;8.93;;
61473;SDS011;53694;49.784;30.150;2023-03-19T04:34:19;14.28;;;9.25;;
61473;SDS011;53694;49.784;30.150;2023-03-19T04:35:21;13.66;;;9.50;;
61473;SDS011;53694;49.784;30.150;2023-03-19T04:36:23;16.19;;;10.43;;
61473;SDS011;53694;49.784;30.150;2023-03-19T04:37:24;19.87;;;10.71;;
61473;SDS011;53694;49.784;30.150;2023-03-19T04:38:26;18.49;;;10.83;;
61473;SDS011;53694;49.784;30.150;2023-03-19T04:39:27;15.68;;;10.24;;
61473;SDS011;53694;49.784;30.150;2023-03-19T04:40:29;20.10;;;11.39;;
61473;SDS011;53694;49.784;30.150;2023-03-19T04:41:31;20.44;;;12.27;;
61473;SDS011;53694;49.784;30.150;2023-03-19T04:42:32;20.22;;;12.37;;
61473;SDS011;53694;49.784;30.150;2023-03-19T04:43:34;16.24;;;10.39;;
61473;SDS011;53694;49.784;30.150;2023-03-19T04:44:35;15.50;;;9.51;;
61473;SDS011;53694;49.784;30.150;2023-03-19T04:45:37;15.49;;;9.72;;
61473;SDS011;53694;49.784;30.150;2023-03-19T04:46:39;15.35;;;8.56;;
61473;SDS011;53694;49.784;30.150;2023-03-19T04:47:40;14.87;;;8.42;;
61473;SDS011;53694;49.784;30.150;2023-03-19T04:48:42;15.26;;;8.86;;
61473;SDS011;53694;49.784;30.150;2023-03-19T04:49:43;12.41;;;8.08;;
61473;SDS011;53694;49.784;30.150;2023-03-19T04:50:45;13.42;;;8.46;;
61473;SDS011;53694;49.784;30.150;2023-03-19T04:51:47;14.97;;;8.64;;
61473;SDS011;53694;49.784;30.150;2023-03-19T04:52:48;18.07;;;9.83;;
61473;SDS011;53694;49.784;30.150;2023-03-19T04:53:50;15.60;;;9.79;;
61473;SDS011;53694;49.784;30.150;2023-03-19T04:54:52;17.64;;;10.19;;
61473;SDS011;53694;49.784;30.150;2023-03-19T04:55:53;18.63;;;10.93;;
61473;SDS011;53694;49.784;30.150;2023-03-19T04:56:55;18.27;;;11.10;;
61473;SDS011;53694;49.784;30.150;2023-03-19T04:57:56;17.53;;;11.28;;
61473;SDS011;53694;49.784;30.150;2023-03-19T04:58:58;17.55;;;11.71;;
61473;SDS011;53694;49.784;30.150;2023-03-19T04:59:59;19.05;;;11.98;;
61473;SDS011;53694;49.784;30.150;2023-03-19T05:01:01;16.76;;;11.56;;
61473;SDS011;53694;49.784;30.150;2023-03-19T05:02:03;21.86;;;12.21;;
61473;SDS011;53694;49.784;30.150;2023-03-19T05:03:04;17.47;;;12.19;;
61473;SDS011;53694;49.784;30.150;2023-03-19T05:04:06;24.09;;;14.01;;
61473;SDS011;53694;49.784;30.150;2023-03-19T05:05:08;17.35;;;10.93;;
61473;SDS011;53694;49.784;30.150;2023-03-19T05:06:10;17.79;;;11.67;;
61473;SDS011;53694;49.784;30.150;2023-03-19T05:07:12;20.34;;;11.94;;
61473;SDS011;53694;49.784;30.150;2023-03-19T05:08:14;22.43;;;13.23;;
61473;SDS011;53694;49.784;30.150;2023-03-19T05:09:15;17.48;;;11.30;;
61473;SDS011;53694;49.784;30.150;2023-03-19T05:10:17;18.54;;;10.38;;
61473;SDS011;53694;49.784;30.150;2023-03-19T05:11:18;18.66;;;10.60;;
61473;SDS011;53694;49.784;30.150;2023-03-19T05:12:20;19.16;;;11.77;;
61473;SDS011;53694;49.784;30.150;2023-03-19T05:13:22;18.32;;;10.61;;
61473;SDS011;53694;49.784;30.150;2023-03-19T05:14:23;20.39;;;11.64;;
61473;SDS011;53694;49.784;30.150;2023-03-19T05:15:25;19.87;;;11.98;;
61473;SDS011;53694;49.784;30.150;2023-03-19T05:16:26;19.31;;;11.63;;
61473;SDS011;53694;49.784;30.150;2023-03-19T05:17:28;20.26;;;12.10;;
61473;SDS011;53694;49.784;30.150;2023-03-19T05:18:29;21.63;;;11.82;;
61473;SDS011;53694;49.784;30.150;2023-03-19T05:19:31;18.43;;;11.91;;
61473;SDS011;53694;49.784;30.150;2023-03-19T05:20:33;19.38;;;11.49;;
61473;SDS011;53694;49.784;30.150;2023-03-19T05:21:34;21.71;;;13.35;;
61473;SDS011;53694;49.784;30.150;2023-03-19T05:22:37;22.50;;;13.83;;
61473;SDS011;53694;49.784;30.150;2023-03-19T05:23:39;21.69;;;14.17;;
61473;SDS011;53694;49.784;30.150;2023-03-19T05:24:40;26.74;;;14.49;;
61473;SDS011;53694;49.784;30.150;2023-03-19T05:25:42;24.00;;;14.02;;
61473;SDS011;53694;49.784;30.150;2023-03-19T05:26:43;21.48;;;14.48;;
61473;SDS011;53694;49.784;30.150;2023-03-19T05:27:46;23.07;;;13.73;;
61473;SDS011;53694;49.784;30.150;2023-03-19T05:28:47;20.31;;;12.54;;
61473;SDS011;53694;49.784;30.150;2023-03-19T05:29:49;21.16;;;12.20;;
61473;SDS011;53694;49.784;30.150;2023-03-19T05:30:51;17.26;;;11.08;;
61473;SDS011;53694;49.784;30.150;2023-03-19T05:31:52;18.25;;;11.13;;
61473;SDS011;53694;49.784;30.150;2023-03-19T05:32:58;19.96;;;10.47;;
61473;SDS011;53694;49.784;30.150;2023-03-19T05:33:58;16.80;;;10.48;;
61473;SDS011;53694;49.784;30.150;2023-03-19T05:34:59;17.06;;;10.29;;
61473;SDS011;53694;49.784;30.150;2023-03-19T05:36:01;16.41;;;10.49;;
61473;SDS011;53694;49.784;30.150;2023-03-19T05:37:02;17.68;;;10.81;;
61473;SDS011;53694;49.784;30.150;2023-03-19T05:38:04;18.17;;;10.58;;
61473;SDS011;53694;49.784;30.150;2023-03-19T05:39:06;16.40;;;10.83;;
61473;SDS011;53694;49.784;30.150;2023-03-19T05:40:08;16.09;;;10.59;;
61473;SDS011;53694;49.784;30.150;2023-03-19T05:41:10;19.01;;;11.64;;
61473;SDS011;53694;49.784;30.150;2023-03-19T05:42:12;16.92;;;11.84;;
61473;SDS011;53694;49.784;30.150;2023-03-19T05:43:13;17.05;;;11.24;;
61473;SDS011;53694;49.784;30.150;2023-03-19T05:44:15;20.59;;;12.24;;
61473;SDS011;53694;49.784;30.150;2023-03-19T05:45:16;20.99;;;12.45;;
61473;SDS011;53694;49.784;30.150;2023-03-19T05:46:18;22.50;;;14.46;;
61473;SDS011;53694;49.784;30.150;2023-03-19T05:47:20;24.39;;;14.06;;
61473;SDS011;53694;49.784;30.150;2023-03-19T05:48:22;20.88;;;14.13;;
61473;SDS011;53694;49.784;30.150;2023-03-19T05:49:23;19.60;;;13.39;;
61473;SDS011;53694;49.784;30.150;2023-03-19T05:50:25;18.70;;;12.25;;
61473;SDS011;53694;49.784;30.150;2023-03-19T05:51:26;21.50;;;11.28;;
61473;SDS011;53694;49.784;30.150;2023-03-19T05:52:28;16.91;;;10.64;;
61473;SDS011;53694;49.784;30.150;2023-03-19T05:53:29;19.48;;;9.88;;
61473;SDS011;53694;49.784;30.150;2023-03-19T05:54:31;14.55;;;9.51;;
61473;SDS011;53694;49.784;30.150;2023-03-19T05:55:33;19.06;;;10.04;;
61473;SDS011;53694;49.784;30.150;2023-03-19T05:56:34;14.24;;;9.79;;
61473;SDS011;53694;49.784;30.150;2023-03-19T05:57:36;17.16;;;9.98;;
61473;SDS011;53694;49.784;30.150;2023-03-19T05:58:38;14.26;;;9.15;;
61473;SDS011;53694;49.784;30.150;2023-03-19T05:59:39;17.71;;;10.96;;
61473;SDS011;53694;49.784;30.150;2023-03-19T06:00:41;19.46;;;11.69;;
61473;SDS011;53694;49.784;30.150;2023-03-19T06:01:43;22.66;;;12.89;;
61473;SDS011;53694;49.784;30.150;2023-03-19T06:02:45;21.37;;;13.14;;
61473;SDS011;53694;49.784;30.150;2023-03-19T06:03:46;26.31;;;14.61;;
61473;SDS011;53694;49.784;30.150;2023-03-19T06:04:48;20.12;;;12.39;;